Time;durP1;ratioP1;P1;durP2;ratioP2;P2;SDS_P1;SDS_P2;PMS_P1;PMS_P2;Temp;Humidity;BMP_temperature;BMP_pressure;BME280_temperature;BME280_humidity;BME280_pressure;Samples;Min_cycle;Max_cycle;Signal;HPM_P1;HPM_P2
2023/01/04 00:01:21;;;;;;;9.27;2.30;;;6.60;99.90;;;;;;5050348;28;20045;-43
2023/01/04 00:03:47;;;;;;;10.13;3.17;;;6.60;99.90;;;;;;5050018;28;20045;-43
2023/01/04 00:06:14;;;;;;;8.65;2.35;;;7.20;99.90;;;;;;5049735;28;20076;-42
2023/01/04 00:08:41;;;;;;;10.60;3.35;;;6.90;99.90;;;;;;5049931;28;20055;-44
2023/01/04 00:11:12;;;;;;;10.88;3.22;;;7.30;99.90;;;;;;5049870;28;20695;-42
2023/01/04 00:13:38;;;;;;;9.15;2.40;;;6.60;99.90;;;;;;5050003;28;20056;-44
2023/01/04 00:16:06;;;;;;;9.65;2.85;;;6.60;99.90;;;;;;5049463;28;20398;-42
2023/01/04 00:18:33;;;;;;;7.00;2.58;;;6.60;99.90;;;;;;5050152;28;20454;-42
2023/01/04 00:21:19;;;;;;;8.10;2.08;;;7.20;99.90;;;;;;5049152;28;20052;-42
2023/01/04 00:23:48;;;;;;;8.25;2.67;;;7.30;99.90;;;;;;5049416;28;20513;-43
2023/01/04 00:26:18;;;;;;;9.88;2.78;;;6.60;99.90;;;;;;5049192;28;20045;-42
2023/01/04 00:28:44;;;;;;;5.07;2.80;;;7.30;99.90;;;;;;5049313;28;20052;-43
2023/01/04 00:31:12;;;;;;;7.93;2.67;;;6.70;99.90;;;;;;5046903;28;20072;-43
2023/01/04 00:33:41;;;;;;;10.18;2.40;;;6.70;99.90;;;;;;5048411;28;20052;-44
2023/01/04 00:36:13;;;;;;;8.50;2.13;;;7.00;99.90;;;;;;5047542;28;20048;-44
2023/01/04 00:38:39;;;;;;;6.23;2.53;;;6.80;99.90;;;;;;5049258;28;20167;-44
2023/01/04 00:41:07;;;;;;;5.20;2.05;;;7.10;99.90;;;;;;5049178;28;20037;-43
2023/01/04 00:43:33;;;;;;;10.52;2.40;;;6.90;99.90;;;;;;5049095;28;20084;-42
2023/01/04 00:46:00;;;;;;;9.68;2.88;;;6.70;99.90;;;;;;5049281;28;20095;-43
2023/01/04 00:48:26;;;;;;;10.40;2.47;;;6.70;99.90;;;;;;5049256;28;20045;-42
2023/01/04 00:50:52;;;;;;;5.53;2.15;;;6.70;99.90;;;;;;5049058;28;20580;-42
2023/01/04 00:53:18;;;;;;;6.72;2.17;;;6.70;99.90;;;;;;5048830;28;20045;-41
2023/01/04 00:55:45;;;;;;;12.43;4.07;;;7.60;99.90;;;;;;5048538;28;20696;-42
2023/01/04 00:58:11;;;;;;;5.95;2.67;;;7.10;99.90;;;;;;5048240;28;20059;-43
2023/01/04 01:00:37;;;;;;;11.68;3.20;;;7.10;99.90;;;;;;5049070;28;20057;-42
2023/01/04 01:03:03;;;;;;;5.75;2.63;;;7.70;99.90;;;;;;5049300;28;20044;-44
2023/01/04 01:05:29;;;;;;;13.73;2.83;;;7.20;99.90;;;;;;5048696;28;20044;-42
2023/01/04 01:07:55;;;;;;;14.40;3.53;;;6.60;99.90;;;;;;5049231;28;20727;-43
2023/01/04 01:10:21;;;;;;;8.48;2.72;;;7.00;99.90;;;;;;5049259;28;20049;-43
2023/01/04 01:12:46;;;;;;;10.05;3.30;;;7.40;99.90;;;;;;5047786;28;20044;-43
2023/01/04 01:15:12;;;;;;;8.75;2.53;;;8.90;99.90;;;;;;5048645;28;20048;-43
2023/01/04 01:17:37;;;;;;;12.70;3.05;;;7.00;99.90;;;;;;5048768;28;20545;-44
2023/01/04 01:20:04;;;;;;;9.50;3.00;;;6.50;99.90;;;;;;5048352;28;20044;-42
2023/01/04 01:22:33;;;;;;;8.95;2.88;;;6.60;99.90;;;;;;5048308;28;20072;-43
2023/01/04 01:24:59;;;;;;;11.57;2.75;;;6.60;99.90;;;;;;5049045;28;20702;-43
2023/01/04 01:27:24;;;;;;;7.25;2.75;;;7.00;99.90;;;;;;5048790;28;20049;-43
2023/01/04 01:29:50;;;;;;;7.38;2.63;;;6.60;99.90;;;;;;5048730;28;20756;-43
2023/01/04 01:32:16;;;;;;;9.63;3.00;;;6.80;99.90;;;;;;5048575;28;20051;-43
2023/01/04 01:34:41;;;;;;;10.75;2.72;;;6.70;99.90;;;;;;5048689;28;20052;-42
2023/01/04 01:37:07;;;;;;;9.50;3.63;;;6.60;99.90;;;;;;5048127;28;20037;-43
2023/01/04 01:39:33;;;;;;;10.13;2.97;;;6.60;99.90;;;;;;5048182;28;20045;-42
2023/01/04 01:41:58;;;;;;;13.05;3.65;;;6.70;99.90;;;;;;5048378;28;20041;-42
2023/01/04 01:44:45;;;;;;;8.60;3.22;;;6.70;99.90;;;;;;5047900;28;20066;-43
2023/01/04 01:47:27;;;;;;;10.60;3.63;;;6.70;99.90;;;;;;5047866;28;20045;-42
2023/01/04 01:49:54;;;;;;;6.15;3.80;;;6.90;99.90;;;;;;5047767;28;20136;-43
2023/01/04 01:52:30;;;;;;;12.23;3.70;;;7.00;99.90;;;;;;5047941;28;20167;-45
2023/01/04 01:55:00;;;;;;;8.93;3.40;;;7.20;99.90;;;;;;5047996;28;20059;-42
2023/01/04 01:57:30;;;;;;;11.35;4.03;;;6.70;99.90;;;;;;5047628;28;20053;-42
2023/01/04 02:00:01;;;;;;;10.57;3.58;;;7.30;99.90;;;;;;5047705;28;20658;-42
2023/01/04 02:02:27;;;;;;;7.55;3.75;;;6.80;99.90;;;;;;5047907;28;20037;-43
2023/01/04 02:04:54;;;;;;;12.05;5.22;;;6.80;99.90;;;;;;5047581;28;20115;-43
2023/01/04 02:07:25;;;;;;;9.02;3.95;;;6.70;99.90;;;;;;5047864;28;20437;-43
2023/01/04 02:09:50;;;;;;;11.35;4.20;;;7.70;99.90;;;;;;5048043;28;20048;-42
2023/01/04 02:12:16;;;;;;;13.10;4.38;;;7.40;99.90;;;;;;5047643;28;20037;-42
2023/01/04 02:14:48;;;;;;;9.25;3.55;;;7.00;99.90;;;;;;5047766;28;20098;-42
2023/01/04 02:17:19;;;;;;;10.38;3.47;;;6.90;99.90;;;;;;5047707;28;20045;-43
2023/01/04 02:20:10;;;;;;;10.30;4.30;;;7.90;99.90;;;;;;5047492;28;20052;-43
2023/01/04 02:22:50;;;;;;;11.00;4.43;;;9.60;99.90;;;;;;5047453;28;20048;-43
2023/01/04 02:25:34;;;;;;;11.95;3.72;;;6.90;99.90;;;;;;5047516;28;20119;-42
2023/01/04 02:28:00;;;;;;;12.07;4.35;;;6.90;99.90;;;;;;5047977;28;20159;-42
2023/01/04 02:30:50;;;;;;;11.90;3.83;;;8.10;99.90;;;;;;5047754;28;20080;-43
2023/01/04 02:33:43;;;;;;;9.15;4.05;;;7.00;99.90;;;;;;5047888;28;20047;-42
2023/01/04 02:36:13;;;;;;;;;;;7.00;99.90;;;;;;5047640;28;20859;-43
2023/01/04 02:39:14;;;;;;;9.23;3.38;;;7.40;99.90;;;;;;5046888;28;19920;-42
2023/01/04 02:42:10;;;;;;;8.73;3.63;;;7.10;99.90;;;;;;5045629;28;20041;-44
2023/01/04 02:44:54;;;;;;;8.07;2.80;;;7.10;99.90;;;;;;5047340;28;20063;-43
2023/01/04 02:50:31;;;;;;;10.70;2.97;;;7.40;99.90;;;;;;5046773;28;20132;-43
2023/01/04 02:53:10;;;;;;;9.25;2.88;;;7.20;99.90;;;;;;5046723;28;20782;-44
2023/01/04 02:55:59;;;;;;;6.07;2.28;;;7.20;99.90;;;;;;5046519;28;20052;-42
2023/01/04 02:58:46;;;;;;;9.07;2.70;;;7.20;99.90;;;;;;5045502;28;20063;-43
2023/01/04 03:08:00;;;;;;;5.60;2.25;;;7.30;99.90;;;;;;5046324;28;20056;-42
2023/01/04 03:10:40;;;;;;;6.63;2.22;;;7.40;99.90;;;;;;5046724;28;20040;-42
2023/01/04 03:13:16;;;;;;;5.32;1.90;;;7.50;99.90;;;;;;5046627;28;20609;-44
2023/01/04 03:15:48;;;;;;;5.03;2.13;;;7.40;99.90;;;;;;5046179;28;20045;-43
2023/01/04 03:18:19;;;;;;;7.93;2.55;;;8.20;99.90;;;;;;5046703;28;20044;-42
2023/01/04 03:20:47;;;;;;;6.43;2.22;;;7.40;99.90;;;;;;5046139;28;20908;-43
2023/01/04 03:35:21;;;;;;;3.88;1.58;;;7.60;99.90;;;;;;5046164;28;20067;-44
2023/01/04 03:50:21;;;;;;;3.45;1.60;;;8.70;99.90;;;;;;5046345;28;20067;-43
2023/01/04 03:52:49;;;;;;;4.95;2.08;;;7.90;99.90;;;;;;5046401;28;20778;-43
2023/01/04 03:55:16;;;;;;;5.25;2.40;;;8.00;99.90;;;;;;5046727;28;20102;-43
2023/01/04 03:57:43;;;;;;;5.15;2.38;;;8.00;99.90;;;;;;5046296;28;20053;-43
2023/01/04 04:00:12;;;;;;;4.43;2.50;;;8.60;99.90;;;;;;5046415;28;20048;-43
2023/01/04 04:02:39;;;;;;;4.25;2.50;;;8.10;99.90;;;;;;5046138;28;20052;-42
2023/01/04 04:10:35;;;;;;;5.68;2.83;;;8.20;99.90;;;;;;5048277;28;20047;-42
2023/01/04 04:13:00;;;;;;;5.30;2.85;;;8.20;99.90;;;;;;5050393;28;20415;-43
2023/01/04 04:15:26;;;;;;;7.75;3.05;;;8.30;99.90;;;;;;5050007;28;20048;-44
2023/01/04 04:17:52;;;;;;;5.88;2.80;;;8.30;99.90;;;;;;5049741;28;20098;-45
2023/01/04 04:20:17;;;;;;;5.63;2.72;;;9.10;99.90;;;;;;5049862;28;20037;-45
2023/01/04 04:22:43;;;;;;;4.50;2.40;;;8.40;99.90;;;;;;5049544;28;20052;-43
2023/01/04 04:25:09;;;;;;;4.82;2.65;;;8.40;99.90;;;;;;5049302;28;20041;-43
2023/01/04 04:27:34;;;;;;;5.85;2.92;;;8.50;99.90;;;;;;5050239;28;20052;-43
2023/01/04 04:30:01;;;;;;;4.10;2.53;;;8.50;99.90;;;;;;5049788;28;20125;-43
2023/01/04 04:32:27;;;;;;;6.65;2.45;;;8.70;99.90;;;;;;5050111;28;20045;-42
2023/01/04 04:34:53;;;;;;;4.78;2.42;;;8.50;99.90;;;;;;5049167;28;20071;-44
2023/01/04 04:37:18;;;;;;;4.85;2.28;;;8.90;99.90;;;;;;5049518;28;20387;-43
2023/01/04 04:39:44;;;;;;;6.20;2.47;;;8.60;99.90;;;;;;5049318;28;20066;-44
2023/01/04 04:42:10;;;;;;;5.47;2.65;;;8.70;99.90;;;;;;5047633;28;20406;-42
2023/01/04 04:44:35;;;;;;;4.22;2.10;;;8.70;99.90;;;;;;5049396;28;20452;-42
2023/01/04 04:47:01;;;;;;;4.18;2.20;;;8.90;99.90;;;;;;5048914;28;20041;-43
2023/01/04 04:49:27;;;;;;;4.05;2.05;;;8.80;99.90;;;;;;5049224;28;20048;-43
2023/01/04 04:51:53;;;;;;;3.50;1.80;;;9.30;99.90;;;;;;5048538;28;20070;-42
2023/01/04 04:54:20;;;;;;;3.92;2.08;;;8.90;99.90;;;;;;5048686;28;20049;-42
2023/01/04 04:56:46;;;;;;;3.83;1.85;;;9.00;99.90;;;;;;5047162;28;20049;-42
2023/01/04 04:59:13;;;;;;;3.85;2.15;;;8.90;99.90;;;;;;5048952;28;20083;-43
2023/01/04 05:01:38;;;;;;;3.13;1.77;;;8.90;99.90;;;;;;5049161;28;20083;-43
2023/01/04 05:04:04;;;;;;;5.65;2.17;;;9.20;99.90;;;;;;5048849;28;20442;-43
2023/01/04 05:06:30;;;;;;;4.13;2.05;;;9.00;99.90;;;;;;5049021;28;20139;-44
2023/01/04 05:08:55;;;;;;;3.72;2.17;;;9.10;99.90;;;;;;5048805;28;20048;-43
2023/01/04 05:12:58;;;;;;;3.70;1.65;;;9.10;99.90;;;;;;5048779;28;20063;-42
2023/01/04 05:14:07;;;;;;;3.65;2.17;;;9.10;99.90;;;;;;5048841;28;20056;-42
2023/01/04 05:16:33;;;;;;;4.85;2.08;;;9.40;99.90;;;;;;5048712;28;20488;-43
2023/01/04 05:18:59;;;;;;;4.97;2.72;;;9.20;99.90;;;;;;5048953;28;20041;-43
2023/01/04 05:21:25;;;;;;;4.82;2.70;;;9.20;99.90;;;;;;5048064;28;20134;-43
2023/01/04 05:23:50;;;;;;;5.78;3.40;;;9.20;99.90;;;;;;5048602;28;20095;-43
2023/01/04 05:26:16;;;;;;;5.40;3.25;;;9.30;99.90;;;;;;5048361;28;20068;-42
2023/01/04 05:28:42;;;;;;;7.72;3.45;;;9.60;99.90;;;;;;5048342;28;20094;-42
2023/01/04 05:31:07;;;;;;;5.63;3.28;;;9.50;99.90;;;;;;5048078;28;20080;-43
2023/01/04 05:33:33;;;;;;;7.43;3.88;;;9.30;99.90;;;;;;5048180;28;20442;-44
2023/01/04 05:36:01;;;;;;;4.47;2.47;;;9.40;99.90;;;;;;5047379;28;20410;-43
2023/01/04 05:38:27;;;;;;;7.47;4.15;;;9.50;99.90;;;;;;5048127;28;20041;-44
2023/01/04 05:40:53;;;;;;;8.23;3.78;;;9.50;99.90;;;;;;5063279;28;20126;-44
2023/01/04 05:43:20;;;;;;;4.85;2.80;;;9.50;99.90;;;;;;5048044;28;20769;-43
2023/01/04 05:45:48;;;;;;;7.18;4.30;;;9.90;99.90;;;;;;5047844;28;20037;-44
2023/01/04 05:48:14;;;;;;;8.23;3.60;;;9.60;99.90;;;;;;5048113;28;20075;-42
2023/01/04 05:50:40;;;;;;;9.73;4.22;;;9.60;99.90;;;;;;5048240;28;20041;-44
2023/01/04 05:53:06;;;;;;;6.38;4.10;;;9.70;99.90;;;;;;5047529;28;20550;-44
2023/01/04 05:55:33;;;;;;;7.57;4.20;;;9.70;99.90;;;;;;5047636;28;20507;-43
2023/01/04 05:57:58;;;;;;;7.25;4.03;;;9.70;99.90;;;;;;5047231;28;20049;-43
2023/01/04 06:00:24;;;;;;;6.85;3.58;;;9.60;99.90;;;;;;5047357;28;20045;-43
2023/01/04 06:02:54;;;;;;;7.85;4.47;;;9.80;99.90;;;;;;5046157;28;20127;-44
2023/01/04 06:05:20;;;;;;;7.90;4.68;;;9.80;99.90;;;;;;5047996;28;20055;-44
2023/01/04 06:07:46;;;;;;;9.68;5.03;;;9.70;99.90;;;;;;5047692;28;20421;-46
2023/01/04 06:10:12;;;;;;;9.05;5.45;;;10.10;99.90;;;;;;5047284;28;20041;-43
2023/01/04 06:12:38;;;;;;;10.65;6.40;;;9.70;99.90;;;;;;5047014;28;20499;-44
2023/01/04 06:15:05;;;;;;;8.65;5.03;;;9.70;99.90;;;;;;5047158;28;20041;-43
2023/01/04 06:17:32;;;;;;;7.78;4.07;;;9.70;99.90;;;;;;5047158;28;20033;-43
2023/01/04 06:19:57;;;;;;;9.15;5.07;;;9.80;99.90;;;;;;5047464;28;20402;-42
2023/01/04 06:22:25;;;;;;;9.35;4.65;;;9.80;99.90;;;;;;5047267;28;20049;-43
2023/01/04 06:24:51;;;;;;;7.90;4.05;;;9.80;99.90;;;;;;5047099;28;20471;-44
2023/01/04 06:27:17;;;;;;;11.02;5.00;;;10.20;99.90;;;;;;5047242;28;20051;-44
2023/01/04 06:29:43;;;;;;;7.78;4.70;;;9.90;99.90;;;;;;5045514;28;20056;-42
2023/01/04 06:32:09;;;;;;;9.90;5.13;;;9.90;99.90;;;;;;5046702;28;20182;-43
2023/01/04 06:34:34;;;;;;;11.10;5.00;;;9.90;99.90;;;;;;5045987;28;20048;-44
2023/01/04 06:37:00;;;;;;;10.48;4.95;;;10.10;99.90;;;;;;5046831;28;20653;-44
2023/01/04 06:39:26;;;;;;;9.48;3.72;;;10.30;99.90;;;;;;5047240;28;20037;-44
2023/01/04 06:41:51;;;;;;;9.27;3.78;;;10.00;99.90;;;;;;5046992;28;20382;-44
2023/01/04 06:44:17;;;;;;;6.30;2.95;;;10.00;99.90;;;;;;5046698;28;20041;-43
2023/01/04 06:46:43;;;;;;;5.65;2.85;;;10.00;99.90;;;;;;5046854;28;20049;-43
2023/01/04 06:49:08;;;;;;;5.53;2.90;;;9.90;99.90;;;;;;5046985;28;20124;-44
2023/01/04 06:51:34;;;;;;;5.82;2.85;;;10.10;99.90;;;;;;5047339;28;20471;-44
2023/01/04 06:54:00;;;;;;;6.78;3.00;;;10.00;99.90;;;;;;5046635;28;20502;-46
2023/01/04 06:56:25;;;;;;;4.75;2.40;;;10.10;99.90;;;;;;5046833;28;20045;-43
2023/01/04 06:58:51;;;;;;;4.40;2.17;;;10.00;99.90;;;;;;5046530;28;20118;-43
2023/01/04 07:01:17;;;;;;;5.80;2.22;;;10.10;99.90;;;;;;5046641;28;20043;-44
2023/01/04 07:03:42;;;;;;;5.43;2.47;;;10.00;99.90;;;;;;5046558;28;20483;-43
2023/01/04 07:06:09;;;;;;;4.28;2.33;;;10.00;99.90;;;;;;5046608;28;20455;-43
2023/01/04 07:08:35;;;;;;;5.78;2.28;;;10.20;99.90;;;;;;5046433;28;20045;-43
2023/01/04 07:11:01;;;;;;;5.45;2.47;;;10.10;99.90;;;;;;5046509;28;20048;-43
2023/01/04 07:13:26;;;;;;;4.93;2.05;;;10.10;99.90;;;;;;5046233;28;20041;-44
2023/01/04 07:15:52;;;;;;;5.00;2.38;;;10.20;99.90;;;;;;5046198;28;20045;-44
2023/01/04 07:18:18;;;;;;;3.10;1.70;;;10.10;99.90;;;;;;5045672;28;20102;-43
2023/01/04 07:20:43;;;;;;;5.00;2.15;;;10.10;99.90;;;;;;5046420;28;20127;-43
2023/01/04 07:23:09;;;;;;;5.38;2.05;;;10.10;99.90;;;;;;5046466;28;20041;-43
2023/01/04 07:25:35;;;;;;;3.35;1.60;;;10.10;99.90;;;;;;5046535;28;20544;-43
2023/01/04 07:28:01;;;;;;;5.00;1.88;;;10.20;99.90;;;;;;5046719;28;20033;-43
2023/01/04 07:30:27;;;;;;;4.38;1.50;;;10.10;99.90;;;;;;5046816;28;20094;-44
2023/01/04 07:32:54;;;;;;;3.78;1.90;;;10.10;99.90;;;;;;5047028;28;20059;-43
2023/01/04 07:35:20;;;;;;;2.92;1.33;;;10.20;99.90;;;;;;5044963;28;20055;-42
2023/01/04 07:37:46;;;;;;;4.43;1.98;;;10.40;99.90;;;;;;5047185;28;20049;-43
2023/01/04 07:40:12;;;;;;;4.22;1.80;;;10.10;99.90;;;;;;5046951;28;20379;-43
2023/01/04 07:42:38;;;;;;;4.13;1.73;;;10.20;99.90;;;;;;5046927;28;20037;-43
2023/01/04 07:45:05;;;;;;;3.30;1.48;;;10.20;99.90;;;;;;5048330;28;20037;-43
2023/01/04 07:47:31;;;;;;;3.88;1.60;;;10.20;99.90;;;;;;5051037;28;20036;-44
2023/01/04 07:49:57;;;;;;;3.88;1.50;;;10.50;99.90;;;;;;5050684;28;20044;-43
2023/01/04 07:52:23;;;;;;;3.15;1.55;;;10.20;99.90;;;;;;5050134;28;20059;-43
2023/01/04 07:54:49;;;;;;;4.22;1.60;;;10.20;99.90;;;;;;5049135;28;20040;-43
2023/01/04 07:57:14;;;;;;;3.63;1.40;;;10.20;99.90;;;;;;5050046;28;20049;-47
2023/01/04 07:59:40;;;;;;;4.47;1.65;;;10.20;99.90;;;;;;5050182;28;20051;-44
2023/01/04 08:02:08;;;;;;;2.92;1.35;;;10.30;99.90;;;;;;5050047;28;20044;-43
2023/01/04 08:04:34;;;;;;;4.15;1.88;;;10.30;99.90;;;;;;5049878;28;20045;-43
2023/01/04 08:07:00;;;;;;;2.65;0.98;;;10.20;99.90;;;;;;5048562;28;20056;-44
2023/01/04 08:09:25;;;;;;;4.15;1.30;;;10.30;99.90;;;;;;5049655;28;20044;-43
2023/01/04 08:11:51;;;;;;;4.63;1.55;;;10.30;99.90;;;;;;5050130;28;20040;-44
2023/01/04 08:14:16;;;;;;;4.35;1.63;;;10.30;99.90;;;;;;5049804;28;20364;-43
2023/01/04 08:16:42;;;;;;;3.45;1.25;;;10.30;99.90;;;;;;5049966;28;20398;-44
2023/01/04 08:19:17;;;;;;;3.28;1.30;;;10.30;99.90;;;;;;5049656;28;20045;-44
2023/01/04 08:21:43;;;;;;;5.22;1.70;;;10.30;99.90;;;;;;5050057;28;20036;-43
2023/01/04 08:24:11;;;;;;;4.25;1.73;;;10.50;99.90;;;;;;5049756;28;20489;-45
2023/01/04 08:26:37;;;;;;;3.45;1.40;;;10.30;99.90;;;;;;5049867;28;20120;-43
2023/01/04 08:29:02;;;;;;;5.70;1.58;;;10.60;99.90;;;;;;5048431;28;20132;-44
2023/01/04 08:31:30;;;;;;;4.13;1.70;;;10.30;99.90;;;;;;5049389;28;20055;-43
2023/01/04 08:33:57;;;;;;;6.18;3.00;;;10.40;99.90;;;;;;5049404;28;20086;-47
2023/01/04 08:36:25;;;;;;;3.00;1.70;;;10.40;99.90;;;;;;5049631;28;20045;-44
2023/01/04 08:38:56;;;;;;;3.78;1.77;;;10.60;99.90;;;;;;5049571;28;20045;-44
2023/01/04 08:41:22;;;;;;;3.42;2.05;;;10.70;99.90;;;;;;5049429;28;20048;-44
2023/01/04 08:43:48;;;;;;;6.03;2.20;;;10.40;99.90;;;;;;5049402;28;20586;-44
2023/01/04 08:46:14;;;;;;;7.53;2.15;;;10.40;99.90;;;;;;5049738;28;20083;-43
2023/01/04 08:48:40;;;;;;;5.00;2.42;;;10.90;99.90;;;;;;5049432;28;20152;-44
2023/01/04 08:51:09;;;;;;;3.92;1.70;;;10.60;99.90;;;;;;5049330;28;20460;-43
2023/01/04 08:53:35;;;;;;;4.50;1.60;;;10.60;99.90;;;;;;5049322;28;20040;-44
2023/01/04 08:56:01;;;;;;;4.00;2.00;;;10.50;99.90;;;;;;5048692;28;20033;-45
2023/01/04 08:58:28;;;;;;;3.67;1.45;;;10.40;99.90;;;;;;5044086;28;20140;-44
2023/01/04 09:01:03;;;;;;;3.03;1.63;;;10.40;99.90;;;;;;5049749;28;20143;-43
2023/01/04 09:03:29;;;;;;;5.97;1.52;;;10.50;99.90;;;;;;5049352;28;20044;-43
2023/01/04 09:06:02;;;;;;;4.18;1.77;;;10.90;99.90;;;;;;5049654;28;20120;-44
2023/01/04 09:08:30;;;;;;;2.70;1.30;;;10.50;99.90;;;;;;5049353;28;20087;-45
2023/01/04 09:10:56;;;;;;;2.85;1.35;;;10.90;99.90;;;;;;5049613;28;20041;-43
2023/01/04 09:13:21;;;;;;;6.10;1.30;;;10.50;99.90;;;;;;5049727;28;20087;-43
2023/01/04 09:15:47;;;;;;;3.83;1.40;;;12.10;99.90;;;;;;5049874;28;20102;-43
2023/01/04 09:18:13;;;;;;;4.05;2.25;;;10.50;99.90;;;;;;5049060;28;20044;-43
2023/01/04 09:20:39;;;;;;;3.13;0.80;;;10.90;99.90;;;;;;5048962;28;20107;-44
2023/01/04 09:23:04;;;;;;;4.00;0.90;;;10.60;99.90;;;;;;5048548;28;20041;-43
2023/01/04 09:25:30;;;;;;;3.35;1.30;;;10.90;99.90;;;;;;5048261;28;20033;-44
2023/01/04 09:27:56;;;;;;;4.18;1.95;;;10.60;99.90;;;;;;5048652;28;20044;-43
2023/01/04 09:30:22;;;;;;;2.47;1.00;;;10.60;99.90;;;;;;5048714;28;20048;-44
2023/01/04 09:32:48;;;;;;;1.67;0.70;;;10.70;99.90;;;;;;5048277;28;20048;-43
2023/01/04 09:35:14;;;;;;;2.10;0.80;;;10.60;99.90;;;;;;5048009;28;20040;-43
2023/01/04 09:37:39;;;;;;;2.60;0.60;;;10.60;99.90;;;;;;5046117;28;20083;-43
2023/01/04 09:40:06;;;;;;;2.28;0.65;;;10.70;99.90;;;;;;5047891;28;20123;-43
2023/01/04 09:42:37;;;;;;;3.38;0.55;;;10.60;99.90;;;;;;5047994;28;20045;-44
2023/01/04 09:45:16;;;;;;;1.58;0.40;;;11.00;99.90;;;;;;5048627;28;20049;-42
2023/01/04 09:47:46;;;;;;;1.48;0.47;;;10.80;99.90;;;;;;5048485;28;20048;-43
2023/01/04 09:50:21;;;;;;;2.33;0.68;;;10.60;99.90;;;;;;5046665;28;20041;-42
2023/01/04 09:52:54;;;;;;;3.97;0.50;;;10.60;99.90;;;;;;5047944;28;20048;-43
2023/01/04 09:55:30;;;;;;;1.52;0.35;;;10.60;99.90;;;;;;5047976;28;20041;-44
2023/01/04 09:58:05;;;;;;;1.67;0.60;;;10.60;99.90;;;;;;5048152;28;20418;-44
2023/01/04 10:00:36;;;;;;;0.85;0.28;;;10.60;99.90;;;;;;5047913;28;20114;-41
2023/01/04 10:03:24;;;;;;;3.58;0.30;;;10.60;99.90;;;;;;5048063;28;20047;-44
2023/01/04 10:05:54;;;;;;;1.35;0.50;;;10.60;99.90;;;;;;5047868;28;20387;-42
2023/01/04 10:08:19;;;;;;;2.03;0.30;;;10.70;99.90;;;;;;5046948;28;20097;-43
2023/01/04 10:11:04;;;;;;;1.75;0.30;;;10.50;99.90;;;;;;5047075;28;20375;-45
2023/01/04 10:13:47;;;;;;;1.40;0.30;;;10.70;99.90;;;;;;5047398;28;20036;-45
2023/01/04 10:16:40;;;;;;;2.70;0.50;;;10.70;99.90;;;;;;5047081;28;20076;-45
2023/01/04 10:19:27;;;;;;;1.60;0.50;;;10.70;99.90;;;;;;5047838;28;20098;-45
2023/01/04 10:21:58;;;;;;;2.30;0.40;;;10.70;99.90;;;;;;5047398;28;20179;-46
2023/01/04 10:24:49;;;;;;;2.92;0.98;;;11.10;99.90;;;;;;5046834;28;20514;-45
2023/01/04 10:27:28;;;;;;;3.65;1.33;;;10.70;99.90;;;;;;5047215;28;20045;-46
2023/01/04 10:30:06;;;;;;;7.85;1.23;;;10.70;99.90;;;;;;5046947;28;20044;-45
2023/01/04 10:32:40;;;;;;;5.43;1.27;;;10.80;99.90;;;;;;5046932;28;20052;-44
2023/01/04 10:35:19;;;;;;;10.15;1.92;;;10.80;99.90;;;;;;5047273;28;20120;-44
2023/01/04 10:37:51;;;;;;;10.95;2.10;;;10.90;99.90;;;;;;5046785;28;20752;-45
2023/01/04 10:40:17;;;;;;;9.73;1.60;;;11.00;99.90;;;;;;5047442;28;20041;-45
2023/01/04 10:42:55;;;;;;;8.40;2.55;;;10.90;99.90;;;;;;5046790;28;20082;-45
2023/01/04 10:45:33;;;;;;;8.02;2.25;;;10.90;99.90;;;;;;5047058;28;20048;-45
2023/01/04 10:48:11;;;;;;;8.20;2.15;;;11.00;99.90;;;;;;5046739;28;20541;-44
2023/01/04 10:50:52;;;;;;;17.48;3.90;;;11.10;99.90;;;;;;5046220;28;20549;-58
2023/01/04 10:53:27;;;;;;;13.05;1.90;;;11.10;99.90;;;;;;5057601;28;20056;-51
2023/01/04 10:56:08;;;;;;;17.90;2.08;;;11.00;99.90;;;;;;5042980;28;20505;-47
2023/01/04 10:59:06;;;;;;;14.05;1.70;;;11.10;99.90;;;;;;5045615;28;20064;-49
2023/01/04 11:01:47;;;;;;;21.92;2.63;;;11.10;99.90;;;;;;5010623;28;20078;-50
2023/01/04 11:04:24;;;;;;;15.20;2.67;;;11.10;99.90;;;;;;5045220;28;20049;-51
2023/01/04 11:06:59;;;;;;;20.98;2.38;;;11.10;99.90;;;;;;5045299;28;20433;-49
2023/01/04 11:09:41;;;;;;;16.38;2.10;;;11.10;99.90;;;;;;5045512;28;20049;-48
2023/01/04 11:12:10;;;;;;;19.60;2.53;;;11.30;99.90;;;;;;5044178;28;20057;-49
2023/01/04 11:14:36;;;;;;;19.15;2.03;;;11.20;99.90;;;;;;5045633;28;20056;-48
2023/01/04 11:17:04;;;;;;;16.05;2.80;;;11.20;99.90;;;;;;5045149;28;20045;-49
2023/01/04 11:19:31;;;;;;;20.98;3.28;;;11.60;99.90;;;;;;5043550;28;20425;-49
2023/01/04 11:22:13;;;;;;;20.33;2.03;;;11.20;99.90;;;;;;5045398;28;20052;-48
2023/01/04 11:24:41;;;;;;;19.17;3.77;;;11.30;99.90;;;;;;5046107;28;20045;-49
2023/01/04 11:27:15;;;;;;;20.27;2.65;;;11.60;99.90;;;;;;5046045;28;20298;-46
2023/01/04 11:29:47;;;;;;;23.52;2.40;;;11.30;99.90;;;;;;5044836;28;20557;-48
2023/01/04 11:32:15;;;;;;;18.67;2.05;;;11.30;99.90;;;;;;5046609;28;20060;-51
2023/01/04 11:34:45;;;;;;;16.38;1.95;;;11.30;99.90;;;;;;5045626;28;20047;-49
2023/01/04 11:37:32;;;;;;;21.65;3.30;;;11.30;99.90;;;;;;5046228;28;20056;-48
2023/01/04 11:40:24;;;;;;;17.15;2.15;;;11.30;99.90;;;;;;5046345;28;20035;-47
2023/01/04 11:43:10;;;;;;;14.90;1.38;;;11.20;99.90;;;;;;5045784;28;20120;-52
2023/01/04 11:45:35;;;;;;;26.00;2.25;;;11.20;99.90;;;;;;5045435;28;20056;-51
2023/01/04 11:48:05;;;;;;;15.80;1.75;;;11.20;99.90;;;;;;5045132;28;20044;-53
2023/01/04 11:50:39;;;;;;;17.27;3.05;;;11.30;99.90;;;;;;5043734;28;20084;-53
2023/01/04 11:53:37;;;;;;;21.48;2.85;;;11.30;99.90;;;;;;5045023;28;20098;-54
2023/01/04 11:56:18;;;;;;;16.63;1.70;;;11.30;99.90;;;;;;5011243;28;20375;-56
2023/01/04 11:59:11;;;;;;;17.80;1.70;;;11.30;99.90;;;;;;5044944;28;20065;-55
2023/01/04 12:01:43;;;;;;;13.52;1.70;;;11.30;99.90;;;;;;5045315;28;20761;-54
2023/01/04 12:04:29;;;;;;;14.35;1.98;;;11.30;99.90;;;;;;5045669;28;20044;-57
2023/01/04 12:07:27;;;;;;;16.05;2.42;;;11.30;99.90;;;;;;5044718;28;20468;-58
2023/01/04 12:09:53;;;;;;;13.55;2.53;;;11.30;99.90;;;;;;5045341;28;20064;-54
2023/01/04 12:12:19;;;;;;;11.50;2.05;;;11.30;99.90;;;;;;5044805;28;20049;-52
2023/01/04 12:14:48;;;;;;;17.00;1.67;;;11.40;99.90;;;;;;5045241;28;20083;-51
2023/01/04 12:17:41;;;;;;;10.30;1.70;;;11.40;99.90;;;;;;5045231;28;20542;-49
2023/01/04 12:20:16;;;;;;;12.20;1.65;;;11.40;99.90;;;;;;5045178;28;20473;-48
2023/01/04 12:22:42;;;;;;;7.25;0.98;;;11.50;99.90;;;;;;5045836;28;20151;-53
2023/01/04 12:25:22;;;;;;;12.57;1.15;;;11.50;99.90;;;;;;5045381;28;20124;-49
2023/01/04 12:27:50;;;;;;;7.43;1.40;;;11.50;99.90;;;;;;5045371;28;20033;-60
2023/01/04 12:30:45;;;;;;;11.43;2.30;;;11.40;99.90;;;;;;5045002;28;20052;-59
2023/01/04 12:33:29;;;;;;;10.57;1.05;;;11.50;99.90;;;;;;5047843;28;20109;-60
2023/01/04 12:36:08;;;;;;;8.85;1.30;;;11.50;99.90;;;;;;5047857;28;20503;-57
2023/01/04 12:39:04;;;;;;;10.80;1.00;;;11.50;99.90;;;;;;5048724;28;20041;-58
2023/01/04 12:41:32;;;;;;;3.60;0.65;;;11.50;99.90;;;;;;5048509;28;20037;-58
2023/01/04 12:43:58;;;;;;;9.15;0.68;;;11.50;99.90;;;;;;5048370;28;20116;-58
2023/01/04 12:49:26;;;;;;;8.32;0.28;;;11.80;99.90;;;;;;5048077;28;20044;-55
2023/01/04 12:52:07;;;;;;;2.03;0.22;;;11.50;99.90;;;;;;5047795;28;20697;-58
2023/01/04 12:54:46;;;;;;;4.97;0.98;;;11.60;99.90;;;;;;5048300;28;20155;-58
2023/01/04 12:57:15;;;;;;;4.10;0.50;;;11.60;99.90;;;;;;5048221;28;20819;-60
2023/01/04 12:59:54;;;;;;;5.32;0.30;;;11.50;99.90;;;;;;5047091;28;20071;-59
2023/01/04 13:02:22;;;;;;;5.00;0.40;;;11.50;99.90;;;;;;5048508;28;20049;-59
2023/01/04 13:04:49;;;;;;;5.43;0.45;;;11.50;99.90;;;;;;5048340;28;20044;-59
2023/01/04 13:07:31;;;;;;;3.08;0.47;;;11.80;99.90;;;;;;5048642;28;20353;-59
2023/01/04 13:09:59;;;;;;;4.90;1.38;;;11.50;99.90;;;;;;5048847;28;20461;-59
2023/01/04 13:13:02;;;;;;;8.32;0.68;;;11.40;99.90;;;;;;5049190;28;20348;-59
2023/01/04 13:15:59;;;;;;;3.83;0.73;;;11.50;99.90;;;;;;5049311;28;20071;-60
2023/01/04 13:18:40;;;;;;;3.95;0.75;;;11.40;99.90;;;;;;5041699;28;20123;-60
2023/01/04 13:21:35;;;;;;;6.75;0.38;;;11.40;99.90;;;;;;5048327;28;20124;-59
2023/01/04 13:24:23;;;;;;;10.63;1.40;;;11.40;99.90;;;;;;5038189;28;20056;-58
2023/01/04 13:26:53;;;;;;;9.70;0.73;;;11.40;99.90;;;;;;5048024;28;20094;-58
2023/01/04 13:29:24;;;;;;;10.07;0.80;;;11.40;99.90;;;;;;5047798;28;20080;-56
2023/01/04 13:31:52;;;;;;;11.27;2.15;;;11.40;99.90;;;;;;5063378;28;20049;-56
2023/01/04 13:34:22;;;;;;;8.82;2.78;;;11.40;99.90;;;;;;5048233;28;20475;-56
2023/01/04 13:37:10;;;;;;;11.82;1.48;;;11.40;99.90;;;;;;5048755;28;20507;-47
2023/01/04 13:39:46;;;;;;;11.60;1.25;;;11.40;99.90;;;;;;5047906;28;20091;-54
2023/01/04 13:42:36;;;;;;;10.20;1.70;;;11.40;99.90;;;;;;5047166;28;20044;-51
2023/01/04 13:45:08;;;;;;;15.40;1.50;;;11.40;99.90;;;;;;5047962;28;20712;-48
2023/01/04 13:47:36;;;;;;;11.48;1.60;;;11.30;99.90;;;;;;5047724;28;20049;-50
2023/01/04 13:50:02;;;;;;;11.73;2.45;;;11.30;99.90;;;;;;5047283;28;20090;-46